Portada
METAR-TAF:

METAR-TAF

Aeroports :

Amman, Jordània

latitud: 31-59N, longitud: 035-59E, altitud: 767 m

Observació

L'informe es va fer fa 29 minuts, a les 00:00 UTC
Vent calma
Temperatura 20°C
Humitat 68%
Pressió 1015 hPa
Visibilitat: 5000 m
calitja

METAR: OJAM 230000Z 00000KT 5000 HZ NSC 20/14 Q1015 NOSIG

Hora: 03:29 (00:29 UTC)

Pronòstic

L'informe es va fer fa 1 hora i 29 minuts, a les 23:00 UTC
Pronòstic vàlid del 23 a les 00 UTC al 24 a les 06 UTC
Vent 8 kt del Oest
Visibilitat: 5000 m
calitja
Temporalment
l' 23 a les 02 UTC al 23 a les 05 UTC
Vent 3 kt amb direcció variable
Visibilitat: 3000 m
Escasses núvols a una alçada de 3000 ft
boirina

TAF: OJAM 222300Z 2300/2406 28008KT 5000 HZ NSC TEMPO 2302/2305 VRB03KT 3000 BR FEW030

Observacions i pronòstics meteorològics de més de 4000 aeroports (METAR i TAF).

Les estacions disponibles són els punts grocs i vermells al mapa.

Posi el ratolí al punt desitjat per veure el nom de l'estació.

Feu clic per veure les observacions i els pronòstics meteorològics.

Per canviar el mapa: feu clic els botons verds amb una creu de color negre per apropar; al botó verd amb un guió per allunyar la imatge; o en les fletxes verdes per a mapes adjacents.


METAR-TAF: